createdAt,value
2017-11-09T00:00:44.382Z,98.00
2017-11-09T00:03:13.244Z,101.57
2017-11-09T00:05:48.492Z,115.03
2017-11-09T00:08:18.128Z,108.40
2017-11-09T00:10:46.991Z,98.20
2017-11-09T00:13:16.642Z,109.93
2017-11-09T00:15:45.527Z,102.93
2017-11-09T00:18:14.364Z,115.70
2017-11-09T00:20:43.198Z,100.43
2017-11-09T00:23:12.060Z,113.87
2017-11-09T00:25:41.691Z,107.70
2017-11-09T00:28:10.553Z,111.50
2017-11-09T00:30:40.182Z,118.10
2017-11-09T00:33:09.036Z,110.83
2017-11-09T00:35:37.872Z,110.73
2017-11-09T00:38:06.732Z,114.73
2017-11-09T00:40:35.596Z,110.03
2017-11-09T00:43:04.447Z,116.60
2017-11-09T00:45:33.301Z,115.87
2017-11-09T00:48:02.194Z,107.30
2017-11-09T00:50:31.287Z,111.90
2017-11-09T00:53:00.112Z,116.47
2017-11-09T00:55:29.377Z,103.00
2017-11-09T00:57:59.010Z,104.97
2017-11-09T01:00:27.868Z,103.47
2017-11-09T01:02:57.467Z,111.80
2017-11-09T01:05:26.328Z,103.60
2017-11-09T01:07:55.192Z,101.73
2017-11-09T01:10:24.035Z,112.97
2017-11-09T01:12:53.895Z,107.10
2017-11-09T01:15:22.767Z,100.80
2017-11-09T01:17:52.387Z,109.43
2017-11-09T01:20:21.227Z,115.93
2017-11-09T01:22:50.121Z,107.37
2017-11-09T01:25:18.959Z,118.10
2017-11-09T01:27:47.823Z,110.27
2017-11-09T01:30:16.930Z,110.93
2017-11-09T01:32:45.794Z,101.63
2017-11-09T01:35:14.629Z,105.83
2017-11-09T01:37:43.495Z,98.20
2017-11-09T01:40:13.116Z,102.60
2017-11-09T01:42:41.984Z,112.80
2017-11-09T01:45:11.627Z,115.13
2017-11-09T01:47:40.482Z,104.30
2017-11-09T01:50:09.581Z,101.37
2017-11-09T01:52:39.188Z,122.17
2017-11-09T01:55:08.876Z,120.53
2017-11-09T01:57:37.720Z,111.57
2017-11-09T02:00:06.606Z,101.13
2017-11-09T02:02:35.431Z,108.93
2017-11-09T02:05:04.276Z,116.70
2017-11-09T02:07:33.904Z,120.20
2017-11-09T02:10:02.765Z,118.83
2017-11-09T02:12:32.591Z,128.70
2017-11-09T02:15:02.212Z,123.63
2017-11-09T02:17:31.067Z,123.60
2017-11-09T02:19:59.909Z,119.97
2017-11-09T02:22:28.788Z,126.77
2017-11-09T02:24:57.642Z,114.80
2017-11-09T02:27:26.490Z,119.90
2017-11-09T02:29:55.358Z,129.00
2017-11-09T02:32:24.772Z,133.17
2017-11-09T02:34:53.628Z,121.33
2017-11-09T02:37:23.261Z,122.37
2017-11-09T02:39:52.123Z,131.93
2017-11-09T02:42:21.732Z,117.30
2017-11-09T02:44:51.389Z,117.47
2017-11-09T02:47:20.229Z,119.47
2017-11-09T02:49:49.852Z,125.10
2017-11-09T02:52:18.711Z,126.13
2017-11-09T02:54:47.596Z,113.77
2017-11-09T02:57:16.431Z,114.60
2017-11-09T02:59:45.297Z,103.27
2017-11-09T03:02:14.920Z,112.43
2017-11-09T03:04:43.748Z,110.60
2017-11-09T03:07:12.596Z,117.00
2017-11-09T03:09:42.225Z,115.63
2017-11-09T03:12:11.081Z,121.17
2017-11-09T03:14:39.921Z,117.50
2017-11-09T03:17:08.787Z,125.73
2017-11-09T03:19:38.420Z,116.03
2017-11-09T03:22:07.279Z,139.53
2017-11-09T03:24:36.280Z,113.03
2017-11-09T03:27:05.413Z,124.80
2017-11-09T03:29:34.249Z,116.40
2017-11-09T03:32:03.868Z,129.70
2017-11-09T03:34:33.508Z,110.33
2017-11-09T03:37:02.361Z,116.17
2017-11-09T03:39:31.979Z,118.30
2017-11-09T03:42:01.604Z,126.63
2017-11-09T03:44:30.459Z,115.10
2017-11-09T03:47:00.083Z,126.97
2017-11-09T03:49:29.752Z,132.53
2017-11-09T03:51:58.639Z,119.80
2017-11-09T03:54:27.483Z,124.60
2017-11-09T03:56:56.344Z,120.47
2017-11-09T03:59:25.984Z,126.47
2017-11-09T04:01:54.875Z,126.20
2017-11-09T04:04:24.486Z,107.60
2017-11-09T04:06:54.115Z,112.50
2017-11-09T04:09:22.980Z,111.27
2017-11-09T04:11:52.593Z,116.47
2017-11-09T04:14:21.456Z,112.97
2017-11-09T04:16:50.309Z,130.17
2017-11-09T04:19:19.161Z,112.63
2017-11-09T04:21:48.036Z,114.93
2017-11-09T04:24:17.656Z,121.83
2017-11-09T04:26:47.289Z,115.73
2017-11-09T04:29:16.129Z,116.73
2017-11-09T04:31:44.989Z,117.67
2017-11-09T04:34:13.837Z,109.30
2017-11-09T04:36:43.464Z,116.50
2017-11-09T04:39:12.329Z,115.60
2017-11-09T04:41:41.955Z,104.30
2017-11-09T04:44:11.509Z,106.50
2017-11-09T04:46:40.372Z,106.70
2017-11-09T04:49:09.248Z,106.97
2017-11-09T04:51:38.087Z,117.27
2017-11-09T04:54:06.935Z,110.77
2017-11-09T04:56:35.816Z,107.53
2017-11-09T04:59:05.267Z,120.77
2017-11-09T05:01:34.906Z,123.57
2017-11-09T05:04:04.527Z,108.57
2017-11-09T05:06:33.380Z,112.43
2017-11-09T05:09:03.012Z,113.40
2017-11-09T05:11:31.871Z,119.93
2017-11-09T05:14:01.479Z,131.17
2017-11-09T05:16:31.115Z,122.07
2017-11-09T05:18:59.969Z,130.00
2017-11-09T05:21:29.691Z,119.23
2017-11-09T05:23:58.516Z,124.13
2017-11-09T05:26:27.363Z,117.00
2017-11-09T05:28:56.861Z,122.23
2017-11-09T05:31:26.476Z,121.77
2017-11-09T05:33:56.112Z,131.37
2017-11-09T05:36:24.951Z,132.13
2017-11-09T05:38:53.818Z,125.40
2017-11-09T05:41:22.684Z,118.97
2017-11-09T05:43:51.521Z,104.60
2017-11-09T05:46:20.387Z,117.63
2017-11-09T05:48:49.242Z,118.90
2017-11-09T05:51:18.127Z,117.87
2017-11-09T05:53:46.988Z,108.47
2017-11-09T05:56:16.629Z,114.23
2017-11-09T05:58:46.244Z,123.93
2017-11-09T06:01:15.108Z,123.83
2017-11-09T06:03:44.888Z,111.47
2017-11-09T06:06:13.727Z,127.60
2017-11-09T06:08:43.775Z,120.80
2017-11-09T06:11:12.623Z,123.20
2017-11-09T06:13:42.249Z,109.63
2017-11-09T06:16:12.493Z,122.47
2017-11-09T06:18:41.344Z,116.10
2017-11-09T06:21:10.976Z,121.43
2017-11-09T06:23:39.848Z,118.27
2017-11-09T06:26:09.481Z,118.00
2017-11-09T06:28:38.346Z,113.03
2017-11-09T06:31:07.976Z,117.17
2017-11-09T06:33:36.856Z,117.27
2017-11-09T06:36:05.770Z,119.07
2017-11-09T06:38:34.624Z,113.83
2017-11-09T06:41:04.250Z,105.20
2017-11-09T06:43:33.893Z,121.20
2017-11-09T06:46:02.723Z,115.97
2017-11-09T06:48:32.344Z,124.00
2017-11-09T06:51:01.974Z,112.50
2017-11-09T06:53:31.485Z,106.57
2017-11-09T06:56:00.331Z,115.53
2017-11-09T06:58:29.244Z,106.27
2017-11-09T07:00:58.087Z,124.40
2017-11-09T07:03:26.947Z,116.10
2017-11-09T07:05:55.796Z,112.53
2017-11-09T07:08:25.415Z,107.00
2017-11-09T07:10:55.053Z,106.63
2017-11-09T07:13:23.900Z,111.50
2017-11-09T07:15:52.749Z,115.67
2017-11-09T07:18:21.618Z,107.47
2017-11-09T07:20:50.459Z,100.83
2017-11-09T07:23:19.320Z,117.47
2017-11-09T07:25:48.187Z,108.53
2017-11-09T07:28:17.052Z,107.77
2017-11-09T07:30:46.655Z,107.80
2017-11-09T07:33:16.287Z,102.13
2017-11-09T07:35:45.161Z,106.30
2017-11-09T07:38:14.795Z,107.07
2017-11-09T07:40:43.680Z,96.73
2017-11-09T07:43:12.535Z,96.17
2017-11-09T07:45:42.170Z,106.77
2017-11-09T07:48:11.014Z,95.37
2017-11-09T07:50:39.872Z,99.00
2017-11-09T07:53:08.716Z,99.53
2017-11-09T07:55:38.328Z,89.47
2017-11-09T07:58:07.957Z,102.73
2017-11-09T08:00:37.215Z,106.33
2017-11-09T08:03:06.113Z,107.63
2017-11-09T08:05:34.940Z,88.33
2017-11-09T08:08:04.564Z,92.30
2017-11-09T08:10:33.395Z,91.23
2017-11-09T08:13:02.225Z,94.07
2017-11-09T08:15:31.106Z,92.57
2017-11-09T08:18:00.717Z,90.90
2017-11-09T08:20:30.351Z,93.97
2017-11-09T08:22:59.160Z,95.20
2017-11-09T08:25:30.376Z,87.87
2017-11-09T08:28:01.059Z,89.93
2017-11-09T08:30:34.519Z,94.93
2017-11-09T08:33:08.060Z,95.73
2017-11-09T08:35:40.482Z,86.57
2017-11-09T08:38:10.094Z,93.00
2017-11-09T08:40:38.952Z,89.37
2017-11-09T08:43:08.589Z,90.30
2017-11-09T08:45:37.548Z,90.97
2017-11-09T08:48:07.183Z,89.37
2017-11-09T08:50:36.034Z,89.97
2017-11-09T08:53:04.924Z,87.13
2017-11-09T08:55:35.257Z,98.57
2017-11-09T08:58:04.896Z,102.13
2017-11-09T09:00:33.731Z,92.90
2017-11-09T09:03:02.597Z,113.03
2017-11-09T09:05:31.512Z,112.43
2017-11-09T09:08:00.372Z,123.23
2017-11-09T09:10:30.003Z,100.33
2017-11-09T09:12:58.852Z,95.87
2017-11-09T09:15:28.488Z,95.97
2017-11-09T09:17:57.329Z,88.07
2017-11-09T09:20:41.068Z,92.33
2017-11-09T09:23:09.942Z,84.27
2017-11-09T09:25:50.449Z,92.50
2017-11-09T09:28:35.764Z,93.90
2017-11-09T09:31:14.554Z,90.57
2017-11-09T09:47:05.339Z,83.10
2017-11-09T09:49:34.953Z,92.40
2017-11-09T09:52:03.833Z,81.70
2017-11-09T09:54:32.900Z,86.17
2017-11-09T09:57:01.959Z,71.93
2017-11-09T09:59:31.544Z,71.63
2017-11-09T10:02:00.389Z,72.90
2017-11-09T10:04:29.236Z,68.60
2017-11-09T10:06:58.088Z,72.57
2017-11-09T10:09:26.945Z,68.30
2017-11-09T10:11:56.567Z,66.87
2017-11-09T10:14:25.427Z,76.13
2017-11-09T10:16:55.156Z,95.70
2017-11-09T10:19:24.805Z,76.27
2017-11-09T10:21:53.634Z,80.13
2017-11-09T10:24:24.005Z,71.73
2017-11-09T10:26:52.860Z,72.90
2017-11-09T10:29:22.464Z,72.87
2017-11-09T10:31:51.670Z,75.00
2017-11-09T10:34:21.305Z,70.33
2017-11-09T10:36:50.144Z,67.93
2017-11-09T10:39:18.998Z,67.60
2017-11-09T10:41:47.858Z,63.87
2017-11-09T10:44:17.448Z,68.03
2017-11-09T10:46:47.115Z,62.77
2017-11-09T10:49:15.941Z,70.60
2017-11-09T10:51:45.566Z,69.50
2017-11-09T10:54:14.568Z,66.00
2017-11-09T10:56:43.440Z,68.07
2017-11-09T10:59:12.526Z,62.77
2017-11-09T11:01:41.364Z,58.73
2017-11-09T11:04:10.225Z,64.50
2017-11-09T11:06:39.846Z,59.63
2017-11-09T11:09:08.719Z,60.77
2017-11-09T11:11:38.348Z,52.70
2017-11-09T11:14:07.222Z,51.40
2017-11-09T11:16:36.902Z,52.33
2017-11-09T11:19:05.739Z,51.43
2017-11-09T11:21:34.603Z,51.40
2017-11-09T11:24:04.234Z,53.90
2017-11-09T11:26:33.844Z,56.97
2017-11-09T11:29:02.713Z,56.80
2017-11-09T11:31:32.345Z,63.70
2017-11-09T11:34:01.603Z,62.00
2017-11-09T11:36:31.658Z,62.23
2017-11-09T11:39:00.954Z,58.80
2017-11-09T11:41:30.574Z,66.80
2017-11-09T11:43:59.421Z,60.97
2017-11-09T11:46:28.258Z,63.13
2017-11-09T11:48:57.133Z,66.63
2017-11-09T11:51:25.984Z,74.80
2017-11-09T11:53:54.820Z,65.57
2017-11-09T11:56:23.711Z,66.90
2017-11-09T11:58:52.572Z,70.47
2017-11-09T12:01:22.223Z,67.37
2017-11-09T12:03:51.090Z,64.53
2017-11-09T12:06:19.940Z,56.83
2017-11-09T12:08:48.839Z,68.07
2017-11-09T12:11:18.851Z,57.63
2017-11-09T12:13:48.487Z,56.07
2017-11-09T12:16:17.317Z,58.87
2017-11-09T12:18:46.172Z,55.00
2017-11-09T12:21:15.783Z,50.80
2017-11-09T12:23:44.777Z,51.33
2017-11-09T12:26:13.674Z,50.03
2017-11-09T12:28:42.541Z,50.30
2017-11-09T12:31:11.420Z,51.77
2017-11-09T12:33:41.011Z,53.13
2017-11-09T12:36:10.656Z,47.50
2017-11-09T12:38:39.513Z,52.53
2017-11-09T12:41:09.149Z,54.07
2017-11-09T12:43:38.037Z,48.27
2017-11-09T12:46:06.912Z,44.93
2017-11-09T12:48:36.549Z,54.83
2017-11-09T12:51:05.401Z,47.17
2017-11-09T12:53:34.236Z,50.30
2017-11-09T12:56:03.076Z,49.30
2017-11-09T12:58:31.970Z,50.77
2017-11-09T13:01:01.577Z,58.30
2017-11-09T13:03:31.210Z,51.23
2017-11-09T13:06:00.068Z,55.83
2017-11-09T13:08:29.685Z,51.67
2017-11-09T13:10:58.553Z,51.07
2017-11-09T13:13:28.164Z,50.23
2017-11-09T13:15:57.789Z,55.23
2017-11-09T13:18:26.635Z,50.07
2017-11-09T13:20:55.487Z,55.07
2017-11-09T13:23:24.359Z,52.40
2017-11-09T13:25:53.916Z,63.43
2017-11-09T13:28:22.763Z,56.23
2017-11-09T13:30:51.607Z,55.53
2017-11-09T13:33:21.309Z,54.40
2017-11-09T13:35:50.149Z,56.90
2017-11-09T13:38:19.018Z,53.77
2017-11-09T13:40:48.629Z,63.27
2017-11-09T13:43:17.492Z,57.97
2017-11-09T13:45:47.108Z,58.77
2017-11-09T13:48:16.744Z,58.03
2017-11-09T13:50:45.589Z,55.53
2017-11-09T13:53:15.524Z,61.50
2017-11-09T13:55:45.177Z,60.50
2017-11-09T13:58:14.657Z,60.40
2017-11-09T14:00:44.480Z,62.50
2017-11-09T14:03:13.333Z,62.73
2017-11-09T14:05:43.273Z,57.03
2017-11-09T14:08:12.129Z,53.67
2017-11-09T14:10:40.973Z,56.10
2017-11-09T14:13:10.580Z,63.63
2017-11-09T14:15:40.212Z,59.63
2017-11-09T14:18:09.083Z,58.70
2017-11-09T14:20:38.690Z,61.07
2017-11-09T14:23:08.323Z,55.67
2017-11-09T14:25:37.172Z,57.73
2017-11-09T14:28:06.801Z,55.13
2017-11-09T14:30:35.692Z,57.83
2017-11-09T14:33:05.364Z,51.63
2017-11-09T14:35:34.298Z,56.57
2017-11-09T14:38:03.905Z,58.10
2017-11-09T14:40:33.268Z,54.00
2017-11-09T14:43:02.264Z,60.23
2017-11-09T14:45:31.147Z,54.00
2017-11-09T14:48:00.000Z,61.83
2017-11-09T14:50:28.857Z,61.87
2017-11-09T14:52:58.506Z,59.57
2017-11-09T14:55:27.356Z,58.50
2017-11-09T14:57:57.027Z,60.93
2017-11-09T15:00:25.928Z,59.33
2017-11-09T15:02:54.792Z,63.47
2017-11-09T15:05:24.284Z,59.70
2017-11-09T15:07:53.141Z,60.37
2017-11-09T15:10:22.760Z,59.07
2017-11-09T15:12:52.510Z,65.70
2017-11-09T15:15:21.369Z,58.83
2017-11-09T15:17:50.226Z,64.30
2017-11-09T15:20:19.060Z,62.60
2017-11-09T15:22:47.928Z,63.97
2017-11-09T15:25:17.187Z,61.90
2017-11-09T15:27:47.404Z,62.63
2017-11-09T15:30:17.053Z,56.70
2017-11-09T15:32:45.907Z,57.20
2017-11-09T15:35:14.832Z,54.23
2017-11-09T15:37:43.697Z,65.07
2017-11-09T15:40:12.545Z,58.43
2017-11-09T15:42:41.449Z,58.70
2017-11-09T15:45:11.058Z,60.70
2017-11-09T15:47:40.702Z,61.83
2017-11-09T15:50:09.551Z,51.90
2017-11-09T15:52:39.151Z,56.90
2017-11-09T15:55:08.047Z,55.50
2017-11-09T15:57:37.348Z,65.73
2017-11-09T16:00:06.273Z,59.90
2017-11-09T16:02:35.196Z,60.73
2017-11-09T16:05:04.039Z,57.63
2017-11-09T16:07:39.060Z,58.30
2017-11-09T16:10:07.940Z,58.03
2017-11-09T16:12:36.798Z,56.80
2017-11-09T16:15:07.651Z,60.30
2017-11-09T16:17:36.502Z,58.17
2017-11-09T16:20:06.181Z,62.63
2017-11-09T16:22:35.015Z,56.13
2017-11-09T16:25:04.088Z,57.17
2017-11-09T16:27:32.917Z,64.17
2017-11-09T16:30:16.505Z,63.30
2017-11-09T16:32:45.359Z,60.17
2017-11-09T16:35:14.235Z,57.80
2017-11-09T16:37:43.085Z,56.73
2017-11-09T16:40:12.736Z,58.10
2017-11-09T16:42:43.297Z,61.70
2017-11-09T16:45:12.146Z,54.63
2017-11-09T16:47:40.993Z,57.13
2017-11-09T16:50:09.877Z,62.87
2017-11-09T16:52:40.781Z,65.03
2017-11-09T16:55:09.615Z,68.57
2017-11-09T16:57:41.648Z,63.13
2017-11-09T17:00:10.522Z,66.10
2017-11-09T17:02:39.387Z,62.77
2017-11-09T17:05:08.219Z,64.10
2017-11-09T17:07:37.088Z,63.07
2017-11-09T17:10:05.969Z,65.47
2017-11-09T17:12:34.852Z,69.30
2017-11-09T17:15:03.677Z,59.80
2017-11-09T17:17:32.544Z,63.60
2017-11-09T17:20:02.164Z,68.17
2017-11-09T17:22:31.051Z,66.73
2017-11-09T17:24:59.956Z,60.90
2017-11-09T17:27:28.797Z,62.63
2017-11-09T17:29:58.460Z,60.10
2017-11-09T17:32:30.290Z,65.33
2017-11-09T17:34:59.918Z,65.33
2017-11-09T17:37:29.731Z,63.63
2017-11-09T17:39:58.760Z,68.30
2017-11-09T17:42:27.575Z,68.60
2017-11-09T17:44:57.220Z,83.80
2017-11-09T17:47:26.104Z,66.77
2017-11-09T17:49:55.048Z,69.00
2017-11-09T17:52:23.877Z,75.60
2017-11-09T17:54:52.768Z,66.97
2017-11-09T17:57:22.026Z,66.53
2017-11-09T17:59:56.570Z,79.97
2017-11-09T18:02:25.404Z,69.20
2017-11-09T18:04:55.748Z,83.00
2017-11-09T18:07:24.569Z,71.43
2017-11-09T18:09:54.217Z,76.80
2017-11-09T18:12:23.083Z,67.80
2017-11-09T18:14:51.975Z,66.90
2017-11-09T18:17:20.819Z,69.10
2017-11-09T18:19:49.733Z,73.03
2017-11-09T18:22:18.575Z,71.30
2017-11-09T18:24:50.104Z,63.57
2017-11-09T18:27:18.987Z,57.53
2017-11-09T18:29:47.816Z,67.90
2017-11-09T18:32:16.802Z,65.20
2017-11-09T18:34:46.404Z,60.43
2017-11-09T18:37:15.625Z,65.33
2017-11-09T18:39:44.492Z,59.37
2017-11-09T18:42:14.919Z,68.53
2017-11-09T18:44:43.749Z,62.77
2017-11-09T18:47:12.584Z,74.30
2017-11-09T18:49:41.432Z,62.30
2017-11-09T18:52:10.277Z,61.87
2017-11-09T18:54:40.625Z,60.80
2017-11-09T18:57:09.479Z,63.23
2017-11-09T18:59:45.138Z,63.97
2017-11-09T19:02:15.109Z,58.70
2017-11-09T19:04:44.950Z,62.20
2017-11-09T19:07:13.869Z,62.23
2017-11-09T19:09:44.061Z,65.23
2017-11-09T19:12:12.936Z,61.50
2017-11-09T19:14:41.797Z,55.70
2017-11-09T19:17:10.657Z,60.00
2017-11-09T19:19:39.634Z,64.50
2017-11-09T19:22:08.516Z,60.20
2017-11-09T19:24:37.369Z,56.67
2017-11-09T19:27:07.045Z,53.80
2017-11-09T19:29:35.932Z,58.17
2017-11-09T19:32:04.826Z,58.83
2017-11-09T19:34:33.756Z,64.10
2017-11-09T19:37:03.373Z,55.37
2017-11-09T19:39:32.225Z,59.00
2017-11-09T19:42:01.082Z,58.33
2017-11-09T19:44:31.118Z,54.93
2017-11-09T19:47:00.038Z,60.03
2017-11-09T19:49:28.852Z,62.10
2017-11-09T19:51:58.307Z,58.30
2017-11-09T19:54:27.147Z,56.13
2017-11-09T19:56:56.182Z,56.10
2017-11-09T19:59:25.071Z,55.73
2017-11-09T20:01:54.004Z,52.30
2017-11-09T20:04:23.651Z,55.90
2017-11-09T20:06:52.497Z,57.33
2017-11-09T20:09:22.118Z,58.60
2017-11-09T20:11:51.270Z,57.50
2017-11-09T20:14:20.105Z,52.57
2017-11-09T20:16:48.966Z,56.90
2017-11-09T20:19:18.587Z,51.87
2017-11-09T20:21:47.430Z,57.83
2017-11-09T20:24:16.287Z,55.40
2017-11-09T20:26:45.155Z,59.77
2017-11-09T20:29:14.211Z,53.23
2017-11-09T20:31:44.117Z,54.23
2017-11-09T20:34:13.013Z,62.93
2017-11-09T20:36:41.853Z,54.57
2017-11-09T20:39:10.724Z,67.40
2017-11-09T20:41:39.568Z,53.50
2017-11-09T20:44:08.411Z,55.43
2017-11-09T20:46:37.256Z,59.83
2017-11-09T20:49:06.898Z,62.73
2017-11-09T20:51:35.764Z,57.40
2017-11-09T20:54:04.604Z,61.13
2017-11-09T21:09:33.501Z,58.40
2017-11-09T21:12:02.354Z,56.57
2017-11-09T21:14:31.205Z,65.00
2017-11-09T21:17:00.808Z,61.30
2017-11-09T21:19:30.428Z,58.87
2017-11-09T21:21:59.269Z,62.10
2017-11-09T21:24:28.170Z,53.90
2017-11-09T21:26:57.234Z,57.60
2017-11-09T21:29:26.062Z,50.77
2017-11-09T21:31:55.728Z,63.63
2017-11-09T21:34:24.607Z,59.93
2017-11-09T21:36:53.455Z,51.43
2017-11-09T21:39:23.962Z,60.47
2017-11-09T21:41:52.830Z,56.40
2017-11-09T21:44:21.660Z,52.77
2017-11-09T21:46:51.311Z,50.20
2017-11-09T21:49:20.129Z,46.10
2017-11-09T21:51:49.016Z,46.43
2017-11-09T21:54:17.888Z,44.33
2017-11-09T21:56:46.721Z,50.17
2017-11-09T21:59:16.349Z,51.83
2017-11-09T22:01:45.987Z,51.43
2017-11-09T22:04:14.920Z,53.47
2017-11-09T22:06:44.163Z,50.20
2017-11-09T22:09:13.278Z,44.70
2017-11-09T22:11:42.144Z,50.70
2017-11-09T22:14:11.016Z,54.53
2017-11-09T22:16:39.842Z,48.43
2017-11-09T22:19:08.704Z,54.30
2017-11-09T22:21:37.545Z,52.23
2017-11-09T22:24:07.168Z,48.07
2017-11-09T22:26:36.798Z,49.13
2017-11-09T22:29:05.640Z,49.87
2017-11-09T22:31:35.256Z,50.47
2017-11-09T22:34:04.874Z,53.97
2017-11-09T22:36:33.734Z,58.17
2017-11-09T22:39:02.565Z,52.70
2017-11-09T22:41:31.876Z,54.23
2017-11-09T22:44:00.938Z,52.20
2017-11-09T22:46:29.756Z,57.27
2017-11-09T22:48:58.624Z,52.67
2017-11-09T22:51:28.230Z,54.90
2017-11-09T22:53:57.861Z,48.13
2017-11-09T22:56:26.695Z,53.47
2017-11-09T22:58:55.577Z,48.70
2017-11-09T23:01:25.264Z,53.33
2017-11-09T23:03:54.113Z,54.03
2017-11-09T23:06:23.740Z,58.57
2017-11-09T23:08:52.580Z,51.17
2017-11-09T23:11:21.434Z,50.37
2017-11-09T23:13:50.290Z,51.80
2017-11-09T23:16:19.363Z,52.00
2017-11-09T23:18:48.972Z,52.70
2017-11-09T23:21:18.667Z,50.00
2017-11-09T23:23:47.498Z,50.93
2017-11-09T23:26:16.809Z,47.93
2017-11-09T23:28:45.665Z,46.53
2017-11-09T23:31:15.262Z,51.47
2017-11-09T23:33:44.890Z,50.17
2017-11-09T23:36:14.430Z,50.97
2017-11-09T23:38:43.284Z,52.80
2017-11-09T23:41:12.125Z,52.80
2017-11-09T23:43:40.963Z,48.50
2017-11-09T23:46:09.832Z,58.00
2017-11-09T23:48:39.432Z,53.23
2017-11-09T23:51:09.073Z,53.27
2017-11-09T23:53:37.888Z,50.50
2017-11-09T23:56:06.749Z,48.87
2017-11-09T23:58:35.583Z,53.60
